createdAt,value
2023-01-18T00:00:38.846Z,0.00
2023-01-18T00:01:38.567Z,0.00
2023-01-18T00:02:38.549Z,0.00
2023-01-18T00:03:39.355Z,0.00
2023-01-18T00:04:38.542Z,0.00
2023-01-18T00:05:42.369Z,0.00
2023-01-18T00:06:39.211Z,0.00
2023-01-18T00:07:42.434Z,0.00
2023-01-18T00:08:39.149Z,0.00
2023-01-18T00:09:42.505Z,0.00
2023-01-18T00:10:38.449Z,0.00
2023-01-18T00:11:38.434Z,0.00
2023-01-18T00:12:39.135Z,0.00
2023-01-18T00:13:39.612Z,0.00
2023-01-18T00:14:38.846Z,0.00
2023-01-18T00:15:39.073Z,0.00
2023-01-18T00:16:38.480Z,0.00
2023-01-18T00:17:38.353Z,0.00
2023-01-18T00:18:43.184Z,0.00
2023-01-18T00:19:48.311Z,0.00
2023-01-18T00:20:38.317Z,0.00
2023-01-18T00:21:39.134Z,0.00
2023-01-18T00:22:38.801Z,0.00
2023-01-18T00:23:38.318Z,0.00
2023-01-18T00:24:38.330Z,0.00
2023-01-18T00:25:38.265Z,0.00
2023-01-18T00:26:38.256Z,0.00
2023-01-18T00:27:42.320Z,0.00
2023-01-18T00:28:38.645Z,0.00
2023-01-18T00:29:38.505Z,0.00
2023-01-18T00:30:38.200Z,0.00
2023-01-18T00:31:38.229Z,0.00
2023-01-18T00:32:42.078Z,0.00
2023-01-18T00:33:38.297Z,0.00
2023-01-18T00:34:39.008Z,0.00
2023-01-18T00:35:38.137Z,0.00
2023-01-18T00:36:41.962Z,0.00
2023-01-18T00:37:38.118Z,0.00
2023-01-18T00:38:38.126Z,0.00
2023-01-18T00:39:38.406Z,0.00
2023-01-18T00:40:38.101Z,0.00
2023-01-18T00:41:38.348Z,0.00
2023-01-18T00:42:41.889Z,0.00
2023-01-18T00:43:38.057Z,0.00
2023-01-18T00:44:38.039Z,0.00
2023-01-18T00:45:38.336Z,0.00
2023-01-18T00:46:42.027Z,0.00
2023-01-18T00:47:42.700Z,0.00
2023-01-18T00:48:38.003Z,0.00
2023-01-18T00:49:41.733Z,0.00
2023-01-18T00:50:37.961Z,0.00
2023-01-18T00:51:38.019Z,0.00
2023-01-18T00:52:37.943Z,0.00
2023-01-18T00:53:38.297Z,0.00
2023-01-18T00:54:38.190Z,0.00
2023-01-18T00:55:37.930Z,0.00
2023-01-18T00:56:38.207Z,0.00
2023-01-18T00:57:42.545Z,0.00
2023-01-18T00:58:37.873Z,0.00
2023-01-18T00:59:37.863Z,0.00
2023-01-18T01:00:38.528Z,0.00
2023-01-18T01:01:37.926Z,0.00
2023-01-18T01:02:37.891Z,0.00
2023-01-18T01:03:42.184Z,0.00
2023-01-18T01:04:38.802Z,0.00
2023-01-18T01:05:38.072Z,0.00
2023-01-18T01:06:37.778Z,0.00
2023-01-18T01:07:38.584Z,0.00
2023-01-18T01:08:41.699Z,0.00
2023-01-18T01:09:37.773Z,0.00
2023-01-18T01:10:37.724Z,0.00
2023-01-18T01:11:39.482Z,0.00
2023-01-18T01:12:38.496Z,0.00
2023-01-18T01:13:38.467Z,0.00
2023-01-18T01:14:49.574Z,0.00
2023-01-18T01:15:37.783Z,0.00
2023-01-18T01:16:37.963Z,0.00
2023-01-18T01:17:37.661Z,0.00
2023-01-18T01:18:37.624Z,0.00
2023-01-18T01:19:37.633Z,0.00
2023-01-18T01:20:37.629Z,0.00
2023-01-18T01:21:37.662Z,0.00
2023-01-18T01:22:37.589Z,0.00
2023-01-18T01:23:37.578Z,0.00
2023-01-18T01:24:37.565Z,0.00
2023-01-18T01:25:37.569Z,0.00
2023-01-18T01:26:37.531Z,0.00
2023-01-18T01:27:37.707Z,0.00
2023-01-18T01:28:38.395Z,0.00
2023-01-18T01:29:37.531Z,0.00
2023-01-18T01:30:41.428Z,0.00
2023-01-18T01:31:37.773Z,0.00
2023-01-18T01:32:37.468Z,0.00
2023-01-18T01:33:37.607Z,0.00
2023-01-18T01:34:37.453Z,0.00
2023-01-18T01:35:37.441Z,0.00
2023-01-18T01:36:39.231Z,0.00
2023-01-18T01:37:37.422Z,0.00
2023-01-18T01:38:37.410Z,0.00
2023-01-18T01:39:37.786Z,0.00
2023-01-18T01:40:37.473Z,0.00
2023-01-18T01:41:37.646Z,0.00
2023-01-18T01:42:37.359Z,0.00
2023-01-18T01:43:37.341Z,0.00
2023-01-18T01:44:37.363Z,0.00
2023-01-18T01:45:37.475Z,0.00
2023-01-18T01:46:37.317Z,0.00
2023-01-18T01:47:37.311Z,0.00
2023-01-18T01:48:37.296Z,0.00
2023-01-18T01:49:37.267Z,0.00
2023-01-18T01:50:37.264Z,0.00
2023-01-18T01:51:41.155Z,0.00
2023-01-18T01:52:37.238Z,0.00
2023-01-18T01:53:37.228Z,0.00
2023-01-18T01:54:37.232Z,0.00
2023-01-18T01:55:37.206Z,0.00
2023-01-18T01:56:40.934Z,0.00
2023-01-18T01:57:37.310Z,0.00
2023-01-18T01:58:38.276Z,0.00
2023-01-18T01:59:37.147Z,0.00
2023-01-18T02:00:37.151Z,0.00
2023-01-18T02:01:37.217Z,0.00
2023-01-18T02:02:37.140Z,0.00
2023-01-18T02:03:37.144Z,0.00
2023-01-18T02:04:37.096Z,0.00
2023-01-18T02:05:37.106Z,0.00
2023-01-18T02:06:37.088Z,0.00
2023-01-18T02:07:37.062Z,0.00
2023-01-18T02:08:37.056Z,0.00
2023-01-18T02:09:38.499Z,0.00
2023-01-18T02:10:37.035Z,0.00
2023-01-18T02:11:37.007Z,0.00
2023-01-18T02:12:41.191Z,0.00
2023-01-18T02:13:37.268Z,0.00
2023-01-18T02:14:36.988Z,0.00
2023-01-18T02:15:36.982Z,0.00
2023-01-18T02:16:36.986Z,0.00
2023-01-18T02:17:36.959Z,0.00
2023-01-18T02:18:37.679Z,0.00
2023-01-18T02:19:36.928Z,0.00
2023-01-18T02:20:36.894Z,0.00
2023-01-18T02:21:36.936Z,0.00
2023-01-18T02:22:37.666Z,0.00
2023-01-18T02:23:36.860Z,0.00
2023-01-18T02:24:37.604Z,0.00
2023-01-18T02:25:36.849Z,0.00
2023-01-18T02:26:36.830Z,0.00
2023-01-18T02:27:40.770Z,0.00
2023-01-18T02:28:36.812Z,0.00
2023-01-18T02:29:36.816Z,0.00
2023-01-18T02:30:36.832Z,0.00
2023-01-18T02:31:36.784Z,0.00
2023-01-18T02:32:58.117Z,0.00
2023-01-18T02:33:36.753Z,0.00
2023-01-18T02:34:36.752Z,0.00
2023-01-18T02:35:38.473Z,0.00
2023-01-18T02:36:36.714Z,0.00
2023-01-18T02:37:36.703Z,0.00
2023-01-18T02:38:36.737Z,0.00
2023-01-18T02:39:48.329Z,0.00
2023-01-18T02:40:36.671Z,0.00
2023-01-18T02:41:57.653Z,0.00
2023-01-18T02:42:36.659Z,0.00
2023-01-18T02:43:36.623Z,0.00
2023-01-18T02:44:36.666Z,0.00
2023-01-18T02:45:36.598Z,0.00
2023-01-18T02:46:36.612Z,0.00
2023-01-18T02:47:36.575Z,0.00
2023-01-18T02:48:36.583Z,0.00
2023-01-18T02:49:36.561Z,0.00
2023-01-18T02:50:36.585Z,0.00
2023-01-18T02:51:36.547Z,0.00
2023-01-18T02:52:36.526Z,0.00
2023-01-18T02:53:36.837Z,0.00
2023-01-18T02:54:36.777Z,0.00
2023-01-18T02:55:36.519Z,0.00
2023-01-18T02:56:36.868Z,0.00
2023-01-18T02:57:36.469Z,0.00
2023-01-18T02:58:37.224Z,0.00
2023-01-18T02:59:36.721Z,0.00
2023-01-18T03:00:36.444Z,0.00
2023-01-18T03:01:36.487Z,0.00
2023-01-18T03:02:36.836Z,0.00
2023-01-18T03:03:48.328Z,0.00
2023-01-18T03:04:36.406Z,0.00
2023-01-18T03:05:36.367Z,0.00
2023-01-18T03:06:36.357Z,0.00
2023-01-18T03:07:36.546Z,0.00
2023-01-18T03:08:40.484Z,0.00
2023-01-18T03:09:40.329Z,0.00
2023-01-18T03:10:36.327Z,0.00
2023-01-18T03:11:37.083Z,0.00
2023-01-18T03:12:40.292Z,0.00
2023-01-18T03:13:38.088Z,0.00
2023-01-18T03:14:36.300Z,0.00
2023-01-18T03:15:38.031Z,0.00
2023-01-18T03:16:36.263Z,0.00
2023-01-18T03:17:38.045Z,0.00
2023-01-18T03:18:36.991Z,0.00
2023-01-18T03:19:37.160Z,0.00
2023-01-18T03:20:40.294Z,0.00
2023-01-18T03:21:40.459Z,0.00
2023-01-18T03:22:36.170Z,0.00
2023-01-18T03:23:36.183Z,0.00
2023-01-18T03:24:36.420Z,0.00
2023-01-18T03:25:36.411Z,0.00
2023-01-18T03:26:47.987Z,0.00
2023-01-18T03:27:36.398Z,0.00
2023-01-18T03:28:36.565Z,0.00
2023-01-18T03:29:37.779Z,0.00
2023-01-18T03:30:40.967Z,0.00
2023-01-18T03:31:36.060Z,0.00
2023-01-18T03:32:36.364Z,0.00
2023-01-18T03:33:36.055Z,0.00
2023-01-18T03:34:36.297Z,0.00
2023-01-18T03:35:36.018Z,0.00
2023-01-18T03:36:36.012Z,0.00
2023-01-18T03:37:39.959Z,0.00
2023-01-18T03:38:36.011Z,0.00
2023-01-18T03:39:35.967Z,0.00
2023-01-18T03:40:35.958Z,0.00
2023-01-18T03:41:35.979Z,0.00
2023-01-18T03:42:35.954Z,0.00
2023-01-18T03:43:39.887Z,0.00
2023-01-18T03:44:35.983Z,0.00
2023-01-18T03:45:35.898Z,0.00
2023-01-18T03:46:35.935Z,0.00
2023-01-18T03:47:35.868Z,0.00
2023-01-18T03:48:35.859Z,0.00
2023-01-18T03:49:35.865Z,0.00
2023-01-18T03:50:40.229Z,0.00
2023-01-18T03:51:35.831Z,0.00
2023-01-18T03:52:35.827Z,0.00
2023-01-18T03:53:39.679Z,0.00
2023-01-18T03:54:35.793Z,0.00
2023-01-18T03:55:35.780Z,0.00
2023-01-18T03:56:35.887Z,0.00
2023-01-18T03:57:35.767Z,0.00
2023-01-18T03:58:35.750Z,0.00
2023-01-18T03:59:35.742Z,0.00
2023-01-18T04:00:35.729Z,0.00
2023-01-18T04:01:35.732Z,0.00
2023-01-18T04:02:35.752Z,0.00
2023-01-18T04:03:35.913Z,0.00
2023-01-18T04:04:35.941Z,0.00
2023-01-18T04:05:39.553Z,0.00
2023-01-18T04:06:35.653Z,0.00
2023-01-18T04:07:35.644Z,0.00
2023-01-18T04:08:35.680Z,0.00
2023-01-18T04:09:35.620Z,0.00
2023-01-18T04:10:35.794Z,0.00
2023-01-18T04:11:35.591Z,0.00
2023-01-18T04:12:40.434Z,0.00
2023-01-18T04:13:35.584Z,0.00
2023-01-18T04:14:35.683Z,0.00
2023-01-18T04:15:36.349Z,0.00
2023-01-18T04:16:35.544Z,0.00
2023-01-18T04:17:35.520Z,0.00
2023-01-18T04:18:35.505Z,0.00
2023-01-18T04:19:35.504Z,0.00
2023-01-18T04:20:39.329Z,0.00
2023-01-18T04:21:35.478Z,0.00
2023-01-18T04:22:35.478Z,0.00
2023-01-18T04:23:39.875Z,0.00
2023-01-18T04:24:35.445Z,0.00
2023-01-18T04:25:35.434Z,0.00
2023-01-18T04:26:39.335Z,0.00
2023-01-18T04:27:39.243Z,0.00
2023-01-18T04:28:35.393Z,0.00
2023-01-18T04:29:35.378Z,0.00
2023-01-18T04:30:35.392Z,0.00
2023-01-18T04:31:35.442Z,0.00
2023-01-18T04:32:35.398Z,0.00
2023-01-18T04:33:47.618Z,0.00
2023-01-18T04:34:41.138Z,0.00
2023-01-18T04:35:35.319Z,0.00
2023-01-18T04:36:35.301Z,0.00
2023-01-18T04:37:35.285Z,0.00
2023-01-18T04:38:36.116Z,0.00
2023-01-18T04:39:35.560Z,0.00
2023-01-18T04:40:39.269Z,0.00
2023-01-18T04:41:39.179Z,0.00
2023-01-18T04:42:35.249Z,0.00
2023-01-18T04:43:35.511Z,0.00
2023-01-18T04:44:39.424Z,0.00
2023-01-18T04:45:35.201Z,0.00
2023-01-18T04:46:35.261Z,0.00
2023-01-18T04:47:35.203Z,0.00
2023-01-18T04:48:35.169Z,0.00
2023-01-18T04:49:35.453Z,0.00
2023-01-18T04:50:39.345Z,0.00
2023-01-18T04:51:35.116Z,0.00
2023-01-18T04:52:35.873Z,0.00
2023-01-18T04:53:35.332Z,0.00
2023-01-18T04:54:35.100Z,0.00
2023-01-18T04:55:39.630Z,0.00
2023-01-18T04:56:35.063Z,0.00
2023-01-18T04:57:35.053Z,0.00
2023-01-18T04:58:38.832Z,0.00
2023-01-18T04:59:35.667Z,0.00
2023-01-18T05:00:35.058Z,0.00
2023-01-18T05:01:35.080Z,0.00
2023-01-18T05:02:35.073Z,0.00
2023-01-18T05:03:35.655Z,0.00
2023-01-18T05:04:36.164Z,0.00
2023-01-18T05:05:34.963Z,0.00
2023-01-18T05:06:34.951Z,0.00
2023-01-18T05:07:35.044Z,0.00
2023-01-18T05:08:38.885Z,0.00
2023-01-18T05:09:39.310Z,0.00
2023-01-18T05:10:34.897Z,0.00
2023-01-18T05:11:46.787Z,0.00
2023-01-18T05:12:35.836Z,0.00
2023-01-18T05:13:35.157Z,0.00
2023-01-18T05:14:34.856Z,0.00
2023-01-18T05:15:35.534Z,0.00
2023-01-18T05:16:34.846Z,0.00
2023-01-18T05:17:34.869Z,0.00
2023-01-18T05:18:34.809Z,0.00
2023-01-18T05:19:34.906Z,0.00
2023-01-18T05:20:35.057Z,0.00
2023-01-18T05:21:34.762Z,0.00
2023-01-18T05:22:35.017Z,0.00
2023-01-18T05:23:56.704Z,0.00
2023-01-18T05:24:35.519Z,0.00
2023-01-18T05:25:34.769Z,0.00
2023-01-18T05:26:46.126Z,0.00
2023-01-18T05:27:34.709Z,0.00
2023-01-18T05:28:35.378Z,0.00
2023-01-18T05:29:34.690Z,0.00
2023-01-18T05:30:34.677Z,0.00
2023-01-18T05:31:34.728Z,0.00
2023-01-18T05:32:34.656Z,0.00
2023-01-18T05:33:35.395Z,0.00
2023-01-18T05:34:34.956Z,0.00
2023-01-18T05:35:34.889Z,0.00
2023-01-18T05:36:34.608Z,0.00
2023-01-18T05:37:46.599Z,0.00
2023-01-18T05:38:38.560Z,0.00
2023-01-18T05:39:34.571Z,0.00
2023-01-18T05:40:34.544Z,0.00
2023-01-18T05:41:34.569Z,0.00
2023-01-18T05:42:34.523Z,0.00
2023-01-18T05:43:35.828Z,0.00
2023-01-18T05:44:34.783Z,0.00
2023-01-18T05:45:34.813Z,0.00
2023-01-18T05:46:34.477Z,0.00
2023-01-18T05:47:34.464Z,0.00
2023-01-18T05:48:34.456Z,0.00
2023-01-18T05:49:34.493Z,0.00
2023-01-18T05:50:34.450Z,0.00
2023-01-18T05:51:34.424Z,0.00
2023-01-18T05:52:34.408Z,0.00
2023-01-18T05:53:34.431Z,0.00
2023-01-18T05:54:34.403Z,0.00
2023-01-18T05:55:34.758Z,0.00
2023-01-18T05:56:34.371Z,0.00
2023-01-18T05:57:34.371Z,0.00
2023-01-18T05:58:34.339Z,0.00
2023-01-18T05:59:34.335Z,0.00
2023-01-18T06:00:34.301Z,0.00
2023-01-18T06:01:34.426Z,0.00
2023-01-18T06:02:38.305Z,0.00
2023-01-18T06:03:35.326Z,0.00
2023-01-18T06:04:35.104Z,0.00
2023-01-18T06:05:34.552Z,0.00
2023-01-18T06:06:34.846Z,0.00
2023-01-18T06:07:34.387Z,0.00
2023-01-18T06:08:34.218Z,0.00
2023-01-18T06:09:34.215Z,0.00
2023-01-18T06:10:34.470Z,0.00
2023-01-18T06:11:34.182Z,0.00
2023-01-18T06:12:34.434Z,0.00
2023-01-18T06:13:34.300Z,0.00
2023-01-18T06:14:38.176Z,0.00
2023-01-18T06:15:34.147Z,0.00
2023-01-18T06:16:34.132Z,0.00
2023-01-18T06:17:34.118Z,0.00
2023-01-18T06:18:34.397Z,0.00
2023-01-18T06:19:34.413Z,0.00
2023-01-18T06:20:34.097Z,0.00
2023-01-18T06:21:34.064Z,0.00
2023-01-18T06:22:34.061Z,0.00
2023-01-18T06:23:34.105Z,0.00
2023-01-18T06:24:34.069Z,0.00
2023-01-18T06:25:34.423Z,0.00
2023-01-18T06:26:34.015Z,0.00
2023-01-18T06:27:34.023Z,0.00
2023-01-18T06:28:33.990Z,0.00
2023-01-18T06:29:34.752Z,0.00
2023-01-18T06:30:33.962Z,0.00
2023-01-18T06:31:34.399Z,0.00
2023-01-18T06:32:34.222Z,0.00
2023-01-18T06:33:33.916Z,0.00
2023-01-18T06:34:33.919Z,0.00
2023-01-18T06:35:33.896Z,0.00
2023-01-18T06:36:33.898Z,0.00
2023-01-18T06:37:33.914Z,0.00
2023-01-18T06:38:33.897Z,0.00
2023-01-18T06:39:33.864Z,0.00
2023-01-18T06:40:33.849Z,0.00
2023-01-18T06:41:33.837Z,0.00
2023-01-18T06:42:33.833Z,0.00
2023-01-18T06:43:34.137Z,0.00
2023-01-18T06:44:33.820Z,0.00
2023-01-18T06:45:33.855Z,0.00
2023-01-18T06:46:33.795Z,0.00
2023-01-18T06:47:34.046Z,0.00
2023-01-18T06:48:33.777Z,0.00
2023-01-18T06:49:34.314Z,0.00
2023-01-18T06:50:33.740Z,0.00
2023-01-18T06:51:33.724Z,0.00
2023-01-18T06:52:33.704Z,0.00
2023-01-18T06:53:36.093Z,0.00
2023-01-18T06:54:33.689Z,0.00
2023-01-18T06:55:33.957Z,0.00
2023-01-18T06:56:33.985Z,0.00
2023-01-18T06:57:33.657Z,0.00
2023-01-18T06:58:33.652Z,0.00
2023-01-18T06:59:33.637Z,0.00
2023-01-18T07:00:33.608Z,0.00
2023-01-18T07:01:34.043Z,0.00
2023-01-18T07:02:33.760Z,0.00
2023-01-18T07:03:33.879Z,0.00
2023-01-18T07:04:35.784Z,0.00
2023-01-18T07:05:33.550Z,0.00
2023-01-18T07:06:33.537Z,0.00
2023-01-18T07:07:33.565Z,0.00
2023-01-18T07:08:34.118Z,0.00
2023-01-18T07:09:33.498Z,0.00
2023-01-18T07:10:34.448Z,0.00
2023-01-18T07:11:33.479Z,0.00
2023-01-18T07:12:33.479Z,0.00
2023-01-18T07:13:33.506Z,0.00
2023-01-18T07:14:33.447Z,0.00
2023-01-18T07:15:34.384Z,0.00
2023-01-18T07:16:33.455Z,0.00
2023-01-18T07:17:33.539Z,0.00
2023-01-18T07:18:33.401Z,0.00
2023-01-18T07:19:33.443Z,0.00
2023-01-18T07:20:34.032Z,0.00
2023-01-18T07:21:33.419Z,0.00
2023-01-18T07:22:33.353Z,0.00
2023-01-18T07:23:33.472Z,0.00
2023-01-18T07:24:33.461Z,0.00
2023-01-18T07:25:33.630Z,0.00
2023-01-18T07:26:33.430Z,5.62
2023-01-18T07:27:35.032Z,5.62
2023-01-18T07:28:33.289Z,5.62
2023-01-18T07:29:33.293Z,5.62
2023-01-18T07:30:33.272Z,5.62
2023-01-18T07:31:34.205Z,5.62
2023-01-18T07:32:33.234Z,5.62
2023-01-18T07:33:33.243Z,5.62
2023-01-18T07:34:34.048Z,5.62
2023-01-18T07:35:34.933Z,11.25
2023-01-18T07:36:33.191Z,11.25
2023-01-18T07:37:33.582Z,11.25
2023-01-18T07:38:33.788Z,11.25
2023-01-18T07:39:33.424Z,11.25
2023-01-18T07:40:33.841Z,11.25
2023-01-18T07:41:33.127Z,11.25
2023-01-18T07:42:33.114Z,16.88
2023-01-18T07:43:33.893Z,16.88
2023-01-18T07:44:33.554Z,16.88
2023-01-18T07:45:33.308Z,16.88
2023-01-18T07:46:33.383Z,16.88
2023-01-18T07:47:33.876Z,22.50
2023-01-18T07:48:33.074Z,22.50
2023-01-18T07:49:33.144Z,22.50
2023-01-18T07:50:33.816Z,22.50
2023-01-18T07:51:33.016Z,22.50
2023-01-18T07:52:33.316Z,28.12
2023-01-18T07:53:33.276Z,28.12
2023-01-18T07:54:32.994Z,28.12
2023-01-18T07:55:33.057Z,28.12
2023-01-18T07:56:32.960Z,33.75
2023-01-18T07:57:33.768Z,33.75
2023-01-18T07:58:32.930Z,33.75
2023-01-18T07:59:34.216Z,33.75
2023-01-18T08:00:33.181Z,33.75
2023-01-18T08:01:33.103Z,39.38
2023-01-18T08:02:33.890Z,39.38
2023-01-18T08:03:34.112Z,39.38
2023-01-18T08:04:32.868Z,39.38
2023-01-18T08:05:33.249Z,45.00
2023-01-18T08:06:33.232Z,45.00
2023-01-18T08:07:32.920Z,45.00
2023-01-18T08:08:32.820Z,45.00
2023-01-18T08:09:33.751Z,45.00
2023-01-18T08:10:32.789Z,50.62
2023-01-18T08:11:32.770Z,50.62
2023-01-18T08:12:33.614Z,50.62
2023-01-18T08:13:32.782Z,50.62
2023-01-18T08:14:32.750Z,56.25
2023-01-18T08:15:32.752Z,56.25
2023-01-18T08:16:32.731Z,56.25
2023-01-18T08:17:32.701Z,56.25
2023-01-18T08:18:33.206Z,56.25
2023-01-18T08:19:32.703Z,61.88
2023-01-18T08:20:32.690Z,61.88
2023-01-18T08:21:33.231Z,61.88
2023-01-18T08:22:32.661Z,61.88
2023-01-18T08:23:32.642Z,61.88
2023-01-18T08:24:32.912Z,67.50
2023-01-18T08:25:33.122Z,67.50
2023-01-18T08:26:32.633Z,67.50
2023-01-18T08:27:32.611Z,67.50
2023-01-18T08:28:33.314Z,67.50
2023-01-18T08:29:32.774Z,73.12
2023-01-18T08:30:33.054Z,73.12
2023-01-18T08:31:32.934Z,73.12
2023-01-18T08:32:33.095Z,73.12
2023-01-18T08:33:32.611Z,73.12
2023-01-18T08:34:33.116Z,78.75
2023-01-18T08:35:32.506Z,78.75
2023-01-18T08:36:32.486Z,78.75
2023-01-18T08:37:32.496Z,78.75
2023-01-18T08:38:32.478Z,78.75
2023-01-18T08:39:32.449Z,84.38
2023-01-18T08:40:32.439Z,84.38
2023-01-18T08:41:32.551Z,84.38
2023-01-18T08:42:32.473Z,84.38
2023-01-18T08:43:33.183Z,90.00
2023-01-18T08:44:32.426Z,90.00
2023-01-18T08:45:32.369Z,90.00
2023-01-18T08:46:32.714Z,90.00
2023-01-18T08:47:32.858Z,90.00
2023-01-18T08:48:32.636Z,90.00
2023-01-18T08:49:32.439Z,90.00
2023-01-18T08:50:32.778Z,95.62
2023-01-18T08:51:32.299Z,95.62
2023-01-18T08:52:33.116Z,95.62
2023-01-18T08:53:32.277Z,101.25
2023-01-18T08:54:32.318Z,101.25
2023-01-18T08:55:32.731Z,101.25
2023-01-18T08:56:32.274Z,101.25
2023-01-18T08:57:32.619Z,95.62
2023-01-18T08:58:32.986Z,101.25
2023-01-18T08:59:32.659Z,106.88
2023-01-18T09:00:32.303Z,101.25
2023-01-18T09:01:32.589Z,95.62
2023-01-18T09:02:33.430Z,106.88
2023-01-18T09:03:32.634Z,106.88
2023-01-18T09:04:32.174Z,106.88
2023-01-18T09:05:32.146Z,106.88
2023-01-18T09:06:32.368Z,106.88
2023-01-18T09:07:32.191Z,106.88
2023-01-18T09:08:32.120Z,112.50
2023-01-18T09:09:32.230Z,112.50
2023-01-18T09:10:32.074Z,112.50
2023-01-18T09:11:33.036Z,112.50
2023-01-18T09:12:32.354Z,106.88
2023-01-18T09:13:32.292Z,106.88
2023-01-18T09:14:32.326Z,106.88
2023-01-18T09:15:32.014Z,106.88
2023-01-18T09:16:32.122Z,106.88
2023-01-18T09:17:31.991Z,112.50
2023-01-18T09:18:32.007Z,106.88
2023-01-18T09:19:32.391Z,112.50
2023-01-18T09:20:32.144Z,112.50
2023-01-18T09:21:32.014Z,112.50
2023-01-18T09:22:32.946Z,112.50
2023-01-18T09:23:31.929Z,112.50
2023-01-18T09:24:31.933Z,118.12
2023-01-18T09:25:32.016Z,118.12
2023-01-18T09:26:32.009Z,118.12
2023-01-18T09:27:31.879Z,118.12
2023-01-18T09:28:31.871Z,118.12
2023-01-18T09:29:32.007Z,123.75
2023-01-18T09:30:32.095Z,123.75
2023-01-18T09:31:32.039Z,123.75
2023-01-18T09:32:32.777Z,118.12
2023-01-18T09:33:37.609Z,112.50
2023-01-18T09:34:33.037Z,112.50
2023-01-18T09:35:32.017Z,112.50
2023-01-18T09:36:32.007Z,112.50
2023-01-18T09:37:32.136Z,112.50
2023-01-18T09:38:31.797Z,118.12
2023-01-18T09:39:40.224Z,123.75
2023-01-18T09:40:32.739Z,123.75
2023-01-18T09:41:31.724Z,123.75
2023-01-18T09:42:31.977Z,129.38
2023-01-18T09:43:31.798Z,135.00
2023-01-18T09:44:31.703Z,140.62
2023-01-18T09:45:31.676Z,140.62
2023-01-18T09:46:32.807Z,135.00
2023-01-18T09:47:31.642Z,140.62
2023-01-18T09:48:31.996Z,140.62
2023-01-18T09:49:31.648Z,146.25
2023-01-18T09:50:31.624Z,140.62
2023-01-18T09:51:32.062Z,140.62
2023-01-18T09:52:31.623Z,151.88
2023-01-18T09:53:31.590Z,151.88
2023-01-18T09:54:31.630Z,146.25
2023-01-18T09:55:31.704Z,151.88
2023-01-18T09:56:31.563Z,151.88
2023-01-18T09:57:32.479Z,151.88
2023-01-18T09:58:31.542Z,151.88
2023-01-18T09:59:31.500Z,157.50
2023-01-18T10:00:31.558Z,146.25
2023-01-18T10:01:31.619Z,146.25
2023-01-18T10:02:31.487Z,146.25
2023-01-18T10:03:32.414Z,146.25
2023-01-18T10:04:31.659Z,146.25
2023-01-18T10:05:31.976Z,157.50
2023-01-18T10:06:31.686Z,157.50
2023-01-18T10:07:31.551Z,163.12
2023-01-18T10:08:31.404Z,151.88
2023-01-18T10:09:31.577Z,168.75
2023-01-18T10:10:31.375Z,174.38
2023-01-18T10:11:31.788Z,174.38
2023-01-18T10:12:31.723Z,174.38
2023-01-18T10:13:31.357Z,174.38
2023-01-18T10:14:31.717Z,180.00
2023-01-18T10:15:31.531Z,180.00
2023-01-18T10:16:31.328Z,180.00
2023-01-18T10:17:31.280Z,180.00
2023-01-18T10:18:31.305Z,185.62
2023-01-18T10:19:31.420Z,185.62
2023-01-18T10:20:31.277Z,185.62
2023-01-18T10:21:31.228Z,185.62
2023-01-18T10:22:31.980Z,185.62
2023-01-18T10:23:31.382Z,185.62
2023-01-18T10:24:31.401Z,185.62
2023-01-18T10:25:31.429Z,185.62
2023-01-18T10:26:31.181Z,185.62
2023-01-18T10:27:31.429Z,185.62
2023-01-18T10:28:31.419Z,185.62
2023-01-18T10:29:31.369Z,185.62
2023-01-18T10:30:31.138Z,185.62
2023-01-18T10:31:31.480Z,185.62
2023-01-18T10:32:31.857Z,185.62
2023-01-18T10:33:31.354Z,185.62
2023-01-18T10:34:31.180Z,185.62
2023-01-18T10:35:31.210Z,185.62
2023-01-18T10:36:31.091Z,185.62
2023-01-18T10:37:31.217Z,191.25
2023-01-18T10:38:31.623Z,191.25
2023-01-18T10:39:31.621Z,191.25
2023-01-18T10:40:31.035Z,191.25
2023-01-18T10:41:31.244Z,191.25
2023-01-18T10:42:31.083Z,191.25
2023-01-18T10:43:31.836Z,185.62
2023-01-18T10:44:32.413Z,180.00
2023-01-18T10:45:32.432Z,185.62
2023-01-18T10:46:30.954Z,180.00
2023-01-18T10:47:30.974Z,180.00
2023-01-18T10:48:30.917Z,174.38
2023-01-18T10:49:31.757Z,174.38
2023-01-18T10:50:31.023Z,174.38
2023-01-18T10:51:30.896Z,185.62
2023-01-18T10:52:31.116Z,185.62
2023-01-18T10:53:31.254Z,185.62
2023-01-18T10:54:31.086Z,191.25
2023-01-18T10:55:31.076Z,191.25
2023-01-18T10:56:31.082Z,191.25
2023-01-18T10:57:31.620Z,191.25
2023-01-18T10:58:31.073Z,180.00
2023-01-18T10:59:30.899Z,180.00
2023-01-18T11:00:30.834Z,185.62
2023-01-18T11:01:31.344Z,180.00
2023-01-18T11:02:30.787Z,185.62
2023-01-18T11:03:30.728Z,191.25
2023-01-18T11:04:30.884Z,191.25
2023-01-18T11:05:31.307Z,196.88
2023-01-18T11:06:31.001Z,196.88
2023-01-18T11:07:31.475Z,196.88
2023-01-18T11:08:31.117Z,191.25
2023-01-18T11:09:30.674Z,196.88
2023-01-18T11:10:42.285Z,196.88
2023-01-18T11:11:31.924Z,196.88
2023-01-18T11:12:30.868Z,202.50
2023-01-18T11:13:30.815Z,196.88
2023-01-18T11:14:30.619Z,196.88
2023-01-18T11:15:30.853Z,202.50
2023-01-18T11:16:31.608Z,202.50
2023-01-18T11:17:30.632Z,202.50
2023-01-18T11:18:30.768Z,202.50
2023-01-18T11:19:30.853Z,202.50
2023-01-18T11:20:30.532Z,202.50
2023-01-18T11:21:30.807Z,202.50
2023-01-18T11:22:31.923Z,202.50
2023-01-18T11:23:30.489Z,202.50
2023-01-18T11:24:30.643Z,202.50
2023-01-18T11:25:30.700Z,202.50
2023-01-18T11:26:30.702Z,208.12
2023-01-18T11:27:30.463Z,208.12
2023-01-18T11:28:31.879Z,208.12
2023-01-18T11:29:30.906Z,208.12
2023-01-18T11:30:30.695Z,208.12
2023-01-18T11:31:30.668Z,208.12
2023-01-18T11:32:31.181Z,208.12
2023-01-18T11:33:30.422Z,208.12
2023-01-18T11:34:30.451Z,213.75
2023-01-18T11:35:30.437Z,213.75
2023-01-18T11:36:30.447Z,213.75
2023-01-18T11:37:30.464Z,219.38
2023-01-18T11:38:30.299Z,219.38
2023-01-18T11:39:30.504Z,219.38
2023-01-18T11:40:30.294Z,219.38
2023-01-18T11:41:30.507Z,213.75
2023-01-18T11:42:30.543Z,213.75
2023-01-18T11:43:30.544Z,213.75
2023-01-18T11:44:30.567Z,219.38
2023-01-18T11:45:31.077Z,225.00
2023-01-18T11:46:30.336Z,219.38
2023-01-18T11:47:30.355Z,219.38
2023-01-18T11:48:34.026Z,219.38
2023-01-18T11:49:34.436Z,213.75
2023-01-18T11:50:31.911Z,225.00
2023-01-18T11:51:30.144Z,225.00
2023-01-18T11:52:33.836Z,225.00
2023-01-18T11:53:30.407Z,225.00
2023-01-18T11:54:34.207Z,225.00
2023-01-18T11:55:30.239Z,225.00
2023-01-18T11:56:30.849Z,225.00
2023-01-18T11:57:30.088Z,230.62
2023-01-18T11:58:30.326Z,225.00
2023-01-18T11:59:30.138Z,230.62
2023-01-18T12:00:30.318Z,230.62
2023-01-18T12:01:30.117Z,230.62
2023-01-18T12:02:30.458Z,230.62
2023-01-18T12:03:30.199Z,230.62
2023-01-18T12:04:37.737Z,230.62
2023-01-18T12:05:30.103Z,230.62
2023-01-18T12:06:30.329Z,225.00
2023-01-18T12:07:29.976Z,225.00
2023-01-18T12:08:30.159Z,225.00
2023-01-18T12:09:30.261Z,225.00
2023-01-18T12:10:29.900Z,225.00
2023-01-18T12:11:29.896Z,225.00
2023-01-18T12:12:30.392Z,225.00
2023-01-18T12:13:30.675Z,225.00
2023-01-18T12:14:29.887Z,225.00
2023-01-18T12:15:29.883Z,225.00
2023-01-18T12:16:30.393Z,225.00
2023-01-18T12:17:29.850Z,225.00
2023-01-18T12:18:29.881Z,225.00
2023-01-18T12:19:29.833Z,225.00
2023-01-18T12:20:29.885Z,225.00
2023-01-18T12:21:30.245Z,225.00
2023-01-18T12:22:29.814Z,225.00
2023-01-18T12:23:29.751Z,225.00
2023-01-18T12:24:29.731Z,225.00
2023-01-18T12:25:30.705Z,225.00
2023-01-18T12:26:29.872Z,225.00
2023-01-18T12:27:30.042Z,225.00
2023-01-18T12:28:30.185Z,219.38
2023-01-18T12:29:29.849Z,219.38
2023-01-18T12:30:29.906Z,219.38
2023-01-18T12:31:30.492Z,219.38
2023-01-18T12:32:29.634Z,219.38
2023-01-18T12:33:42.781Z,219.38
2023-01-18T12:34:30.646Z,219.38
2023-01-18T12:35:29.617Z,219.38
2023-01-18T12:36:29.589Z,219.38
2023-01-18T12:37:29.770Z,219.38
2023-01-18T12:38:29.888Z,219.38
2023-01-18T12:39:29.798Z,219.38
2023-01-18T12:40:30.310Z,219.38
2023-01-18T12:41:29.588Z,213.75
2023-01-18T12:42:31.449Z,219.38
2023-01-18T12:43:29.857Z,213.75
2023-01-18T12:44:29.514Z,213.75
2023-01-18T12:45:29.694Z,213.75
2023-01-18T12:46:29.586Z,213.75
2023-01-18T12:47:29.534Z,213.75
2023-01-18T12:48:29.434Z,213.75
2023-01-18T12:49:29.555Z,213.75
2023-01-18T12:50:30.226Z,213.75
2023-01-18T12:51:29.432Z,213.75
2023-01-18T12:52:33.511Z,213.75
2023-01-18T12:53:30.203Z,208.12
2023-01-18T12:54:29.452Z,208.12
2023-01-18T12:55:29.548Z,208.12
2023-01-18T12:56:29.446Z,208.12
2023-01-18T12:57:29.645Z,208.12
2023-01-18T12:58:29.346Z,208.12
2023-01-18T12:59:31.087Z,208.12